createdAt,value
2019-05-10T00:01:00.952Z,10.00
2019-05-10T00:03:49.634Z,10.00
2019-05-10T00:06:37.784Z,9.90
2019-05-10T00:09:07.571Z,9.90
2019-05-10T00:11:59.404Z,9.80
2019-05-10T00:14:48.874Z,9.80
2019-05-10T00:17:22.188Z,9.90
2019-05-10T00:19:52.778Z,9.80
2019-05-10T00:22:24.103Z,9.80
2019-05-10T00:25:03.912Z,9.80
2019-05-10T00:27:27.754Z,9.70
2019-05-10T00:29:58.291Z,9.70
2019-05-10T00:32:29.487Z,9.80
2019-05-10T00:35:00.151Z,9.90
2019-05-10T00:37:30.678Z,10.00
2019-05-10T00:40:01.258Z,10.00
2019-05-10T00:42:34.117Z,10.20
2019-05-10T00:45:05.871Z,10.30
2019-05-10T00:47:36.712Z,10.30
2019-05-10T00:50:07.957Z,10.30
2019-05-10T00:52:38.483Z,10.30
2019-05-10T00:55:18.456Z,10.40
2019-05-10T00:57:42.572Z,10.50
2019-05-10T01:00:13.761Z,10.50
2019-05-10T01:03:03.327Z,10.60
2019-05-10T01:06:12.259Z,10.50
2019-05-10T01:09:14.732Z,10.50
2019-05-10T01:12:16.135Z,10.50
2019-05-10T01:15:05.081Z,10.60
2019-05-10T01:18:25.921Z,10.60
2019-05-10T01:21:08.800Z,10.60
2019-05-10T01:23:51.123Z,10.50
2019-05-10T01:26:51.922Z,10.50
2019-05-10T01:29:34.315Z,10.50
2019-05-10T01:32:17.179Z,10.50
2019-05-10T01:35:18.828Z,10.50
2019-05-10T01:38:01.421Z,10.40
2019-05-10T01:40:44.524Z,10.30
2019-05-10T01:43:45.783Z,10.20
2019-05-10T01:46:48.427Z,10.30
2019-05-10T01:49:50.175Z,10.30
2019-05-10T01:52:32.260Z,10.30
2019-05-10T01:55:14.736Z,10.40
2019-05-10T01:58:15.685Z,10.40
2019-05-10T02:00:57.516Z,10.40
2019-05-10T02:03:39.783Z,10.40
2019-05-10T02:06:22.239Z,10.50
2019-05-10T02:09:04.116Z,10.40
2019-05-10T02:17:53.367Z,10.40
2019-05-10T02:20:35.457Z,10.30
2019-05-10T02:23:36.507Z,10.50
2019-05-10T02:29:18.519Z,10.50
2019-05-10T02:32:04.487Z,10.50
2019-05-10T02:38:31.372Z,10.80
2019-05-10T02:53:30.099Z,11.10
2019-05-10T02:56:31.738Z,11.10
2019-05-10T02:59:13.895Z,11.20
2019-05-10T03:01:56.329Z,11.30
2019-05-10T03:04:57.680Z,11.30
2019-05-10T03:07:40.050Z,11.30
2019-05-10T03:10:24.554Z,11.40
2019-05-10T03:13:27.241Z,11.30
2019-05-10T03:16:29.933Z,11.30
2019-05-10T03:19:31.131Z,11.30
2019-05-10T03:22:13.637Z,11.30
2019-05-10T03:24:55.433Z,11.30
2019-05-10T03:30:40.781Z,11.20
2019-05-10T03:33:23.418Z,11.30
2019-05-10T03:36:24.483Z,11.40
2019-05-10T03:41:55.140Z,11.30
2019-05-10T03:47:48.506Z,11.40
2019-05-10T03:50:30.793Z,11.40
2019-05-10T03:53:12.567Z,11.40
2019-05-10T03:55:54.865Z,11.50
2019-05-10T03:58:37.238Z,11.50
2019-05-10T04:01:19.483Z,11.50
2019-05-10T04:04:01.513Z,11.50
2019-05-10T04:06:32.023Z,11.50
2019-05-10T04:09:21.583Z,11.50
2019-05-10T04:12:04.773Z,11.40
2019-05-10T04:14:47.160Z,11.30
2019-05-10T04:17:50.347Z,11.40
2019-05-10T04:20:57.127Z,11.40
2019-05-10T04:23:58.400Z,11.40
2019-05-10T04:26:59.388Z,11.40
2019-05-10T04:29:29.800Z,11.40
2019-05-10T04:32:19.880Z,11.40
2019-05-10T04:35:48.812Z,11.30
2019-05-10T04:38:30.812Z,11.30
2019-05-10T04:44:32.549Z,11.40
2019-05-10T04:47:15.311Z,11.30
2019-05-10T04:49:57.884Z,11.40
2019-05-10T04:52:46.458Z,11.40
2019-05-10T04:55:31.494Z,11.30
2019-05-10T04:58:19.980Z,11.40
2019-05-10T05:01:06.044Z,11.30
2019-05-10T05:06:58.531Z,11.30
2019-05-10T05:09:29.395Z,11.20
2019-05-10T05:12:19.004Z,11.10
2019-05-10T05:15:01.607Z,11.20
2019-05-10T05:17:32.369Z,11.30
2019-05-10T05:23:23.794Z,11.30
2019-05-10T05:26:05.652Z,11.20
2019-05-10T05:28:47.739Z,11.20
2019-05-10T05:31:18.231Z,11.20
2019-05-10T05:34:08.228Z,11.10
2019-05-10T05:36:40.496Z,11.00
2019-05-10T05:42:31.583Z,11.10
2019-05-10T05:48:40.467Z,11.10
2019-05-10T05:51:18.031Z,11.20
2019-05-10T05:54:03.738Z,11.20
2019-05-10T05:57:02.544Z,11.30
2019-05-10T06:00:06.723Z,11.40
2019-05-10T06:03:07.771Z,11.50
2019-05-10T06:05:49.737Z,11.70
2019-05-10T06:08:31.783Z,11.80
2019-05-10T06:11:35.951Z,11.80
2019-05-10T06:14:16.724Z,11.80
2019-05-10T06:16:59.604Z,11.70
2019-05-10T06:19:30.847Z,11.60
2019-05-10T06:22:20.376Z,11.50
2019-05-10T06:28:57.054Z,11.60
2019-05-10T06:34:04.195Z,11.50
2019-05-10T06:39:29.735Z,11.50
2019-05-10T06:42:11.535Z,11.50
2019-05-10T06:44:53.511Z,11.60
2019-05-10T06:47:42.158Z,11.50
2019-05-10T06:50:40.071Z,11.50
2019-05-10T06:53:23.446Z,11.50
2019-05-10T06:56:05.323Z,11.60
2019-05-10T06:58:47.100Z,11.60
2019-05-10T07:04:28.133Z,11.50
2019-05-10T07:07:22.247Z,11.50
2019-05-10T07:10:12.214Z,11.50
2019-05-10T07:15:59.995Z,11.40
2019-05-10T07:18:42.232Z,11.40
2019-05-10T07:21:24.424Z,11.30
2019-05-10T07:27:38.168Z,11.50
2019-05-10T07:33:37.316Z,11.70
2019-05-10T07:36:20.784Z,11.80
2019-05-10T07:39:08.287Z,11.80
2019-05-10T07:45:03.036Z,12.10
2019-05-10T07:47:45.830Z,12.00
2019-05-10T07:53:09.351Z,12.00
2019-05-10T07:55:51.350Z,12.00
2019-05-10T07:58:38.343Z,12.00
2019-05-10T08:01:28.914Z,11.90
2019-05-10T08:04:28.833Z,11.90
2019-05-10T08:07:23.595Z,12.00
2019-05-10T08:10:24.535Z,12.20
2019-05-10T08:13:08.325Z,12.30
2019-05-10T08:15:50.256Z,12.30
2019-05-10T08:18:55.568Z,12.40
2019-05-10T08:21:35.371Z,12.60
2019-05-10T08:24:17.159Z,12.70
2019-05-10T08:27:18.061Z,12.70
2019-05-10T08:32:44.735Z,12.70
2019-05-10T08:35:46.670Z,12.70
2019-05-10T08:38:59.590Z,12.60
2019-05-10T08:41:32.613Z,12.50
2019-05-10T08:44:19.720Z,12.40
2019-05-10T08:50:44.164Z,12.60
2019-05-10T08:56:24.124Z,12.80
2019-05-10T08:59:09.590Z,12.80
2019-05-10T09:01:51.477Z,12.70
2019-05-10T09:04:53.427Z,12.80
2019-05-10T09:07:39.021Z,12.90
2019-05-10T09:10:21.929Z,12.80
2019-05-10T09:15:58.623Z,12.80
2019-05-10T09:18:46.134Z,12.70
2019-05-10T09:21:24.408Z,12.80
2019-05-10T09:33:41.048Z,13.40
2019-05-10T09:38:59.991Z,13.80
2019-05-10T09:41:44.728Z,14.00
2019-05-10T09:44:46.081Z,14.10
2019-05-10T09:47:47.619Z,14.30
2019-05-10T09:50:30.395Z,14.40
2019-05-10T09:53:18.221Z,14.30
2019-05-10T09:56:17.308Z,14.30
2019-05-10T09:59:18.743Z,14.30
2019-05-10T10:02:04.940Z,14.20
2019-05-10T10:04:47.216Z,14.30
2019-05-10T10:07:48.188Z,14.40
2019-05-10T10:11:01.104Z,14.60
2019-05-10T10:14:01.899Z,14.90
2019-05-10T10:19:57.878Z,15.00
2019-05-10T10:22:43.302Z,14.90
2019-05-10T10:25:26.896Z,15.00
2019-05-10T10:28:28.591Z,15.00
2019-05-10T10:31:33.408Z,15.00
2019-05-10T10:34:13.300Z,15.00
2019-05-10T10:36:58.052Z,15.10
2019-05-10T10:40:00.734Z,15.10
2019-05-10T10:42:30.928Z,15.30
2019-05-10T10:45:20.747Z,15.40
2019-05-10T10:48:08.594Z,15.20
2019-05-10T10:50:53.384Z,15.30
2019-05-10T10:56:48.093Z,15.30
2019-05-10T10:59:28.983Z,15.30
2019-05-10T11:04:55.483Z,15.40
2019-05-10T11:07:41.487Z,15.40
2019-05-10T11:13:44.116Z,15.20
2019-05-10T11:16:20.750Z,15.00
2019-05-10T11:19:03.666Z,15.00
2019-05-10T11:21:46.996Z,15.00
2019-05-10T11:24:30.840Z,14.90
2019-05-10T11:45:36.999Z,15.30
2019-05-10T11:48:41.745Z,15.60
2019-05-10T11:51:23.568Z,15.80
2019-05-10T11:57:16.925Z,16.20
2019-05-10T11:59:59.054Z,16.50
2019-05-10T12:02:45.903Z,16.60
2019-05-10T12:08:41.834Z,16.80
2019-05-10T12:11:33.933Z,17.00
2019-05-10T12:14:43.736Z,16.90
2019-05-10T12:17:46.909Z,16.70
2019-05-10T12:20:41.154Z,16.90
2019-05-10T12:27:14.414Z,17.10
2019-05-10T12:32:38.815Z,16.70
2019-05-10T12:35:18.491Z,16.80
2019-05-10T12:38:01.616Z,16.80
2019-05-10T12:40:45.873Z,16.90
2019-05-10T12:43:28.051Z,16.90
2019-05-10T12:46:13.615Z,17.00
2019-05-10T12:54:36.748Z,17.20
2019-05-10T12:57:23.648Z,17.10
2019-05-10T13:00:13.494Z,17.10
2019-05-10T13:02:44.964Z,17.20
2019-05-10T13:11:43.911Z,17.00
2019-05-10T13:23:38.048Z,17.30
2019-05-10T13:26:40.206Z,17.40
2019-05-10T13:33:04.267Z,17.60
2019-05-10T13:35:50.694Z,17.80
2019-05-10T13:38:37.032Z,17.90
2019-05-10T13:41:26.558Z,18.00
2019-05-10T13:46:59.583Z,18.20
2019-05-10T13:49:43.169Z,18.20
2019-05-10T13:52:52.945Z,18.10
2019-05-10T13:58:20.307Z,18.20
2019-05-10T14:03:48.718Z,18.10
2019-05-10T14:06:54.967Z,18.10
2019-05-10T14:09:37.935Z,18.00
2019-05-10T14:12:23.070Z,18.00
2019-05-10T14:15:08.581Z,17.80
2019-05-10T14:17:47.687Z,17.80
2019-05-10T14:20:30.324Z,17.80
2019-05-10T14:23:39.190Z,17.60
2019-05-10T14:26:21.735Z,17.30
2019-05-10T14:29:03.510Z,17.00
2019-05-10T14:31:45.663Z,17.00
2019-05-10T14:34:46.411Z,17.00
2019-05-10T14:37:29.085Z,16.90
2019-05-10T14:43:43.856Z,16.80
2019-05-10T14:46:44.701Z,16.60
2019-05-10T14:49:26.441Z,16.60
2019-05-10T14:52:08.651Z,16.60
2019-05-10T14:58:19.584Z,16.60
2019-05-10T15:07:51.789Z,16.40
2019-05-10T15:16:27.397Z,16.20
2019-05-10T15:22:36.272Z,16.10
2019-05-10T15:25:18.563Z,15.90
2019-05-10T15:31:39.067Z,15.60
2019-05-10T15:38:18.904Z,15.60
2019-05-10T15:41:01.618Z,15.70
2019-05-10T15:44:02.627Z,15.80
2019-05-10T15:46:44.668Z,15.70
2019-05-10T15:49:27.417Z,15.80
2019-05-10T15:52:17.539Z,15.80
2019-05-10T15:55:16.581Z,15.80
2019-05-10T15:58:00.078Z,15.90
2019-05-10T16:00:41.725Z,16.00
2019-05-10T16:03:43.006Z,16.10
2019-05-10T16:06:25.478Z,16.10
2019-05-10T16:09:17.464Z,16.10
2019-05-10T16:12:16.278Z,16.10
2019-05-10T16:14:59.149Z,16.30
2019-05-10T16:17:41.483Z,16.30
2019-05-10T16:23:46.561Z,16.40
2019-05-10T16:26:30.251Z,16.40
2019-05-10T16:35:12.645Z,16.30
2019-05-10T16:37:51.777Z,16.20
2019-05-10T16:40:34.157Z,16.10
2019-05-10T16:43:23.934Z,16.00
2019-05-10T16:52:53.260Z,15.40
2019-05-10T16:55:40.132Z,15.20
2019-05-10T17:00:58.935Z,15.20
2019-05-10T17:03:40.839Z,15.20
2019-05-10T17:06:23.003Z,15.20
2019-05-10T17:09:09.489Z,15.20
2019-05-10T17:14:33.215Z,15.20
2019-05-10T17:17:15.097Z,15.20
2019-05-10T17:19:58.696Z,15.20
2019-05-10T17:22:40.864Z,15.20
2019-05-10T17:25:23.440Z,15.20
2019-05-10T17:28:05.762Z,15.10
2019-05-10T17:31:08.133Z,15.10
2019-05-10T17:34:08.303Z,15.00
2019-05-10T17:36:51.583Z,14.90
2019-05-10T17:39:34.430Z,14.80
2019-05-10T17:42:16.381Z,14.80
2019-05-10T17:48:40.845Z,14.60
2019-05-10T17:54:49.595Z,14.50
2019-05-10T17:57:31.584Z,14.40
2019-05-10T18:00:33.280Z,14.20
2019-05-10T18:03:16.031Z,14.20
2019-05-10T18:05:58.234Z,14.30
2019-05-10T18:12:37.495Z,14.40
2019-05-10T18:15:20.343Z,14.40
2019-05-10T18:18:04.218Z,14.40
2019-05-10T18:24:24.011Z,14.50
2019-05-10T18:30:45.892Z,14.50
2019-05-10T18:33:28.720Z,14.60
2019-05-10T18:39:47.400Z,14.50
2019-05-10T18:42:27.991Z,14.40
2019-05-10T18:48:48.534Z,14.40
2019-05-10T18:51:34.647Z,14.40
2019-05-10T18:54:16.993Z,14.30
2019-05-10T18:59:46.884Z,13.80
2019-05-10T19:05:35.787Z,13.60
2019-05-10T19:12:23.029Z,13.70
2019-05-10T19:15:24.576Z,13.70
2019-05-10T19:18:06.523Z,13.60
2019-05-10T19:24:17.783Z,13.50
2019-05-10T19:30:34.089Z,13.40
2019-05-10T19:36:39.771Z,13.40
2019-05-10T19:39:22.406Z,13.30
2019-05-10T19:42:36.764Z,13.30
2019-05-10T19:49:15.389Z,13.20
2019-05-10T19:52:15.088Z,13.10
2019-05-10T19:54:57.836Z,13.10
2019-05-10T20:01:09.899Z,13.20
2019-05-10T20:04:11.500Z,13.20
2019-05-10T20:06:54.779Z,13.10
2019-05-10T20:09:40.987Z,13.20
2019-05-10T20:12:23.184Z,13.20
2019-05-10T20:15:11.965Z,13.20
2019-05-10T20:17:54.205Z,13.20
2019-05-10T20:20:36.616Z,13.20
2019-05-10T20:26:02.836Z,13.10
2019-05-10T20:28:44.970Z,13.10
2019-05-10T20:31:30.640Z,13.10
2019-05-10T20:34:11.872Z,13.10
2019-05-10T20:37:12.768Z,13.10
2019-05-10T20:40:13.187Z,13.10
2019-05-10T20:42:54.932Z,13.20
2019-05-10T20:45:45.543Z,13.20
2019-05-10T20:48:27.767Z,13.10
2019-05-10T20:51:29.095Z,13.10
2019-05-10T20:54:29.069Z,13.00
2019-05-10T20:57:11.984Z,13.00
2019-05-10T20:59:53.895Z,13.00
2019-05-10T21:02:36.476Z,13.00
2019-05-10T21:08:29.243Z,12.80
2019-05-10T21:11:17.675Z,12.70
2019-05-10T21:14:19.392Z,12.70
2019-05-10T21:17:28.488Z,12.70
2019-05-10T21:20:11.278Z,12.70
2019-05-10T21:23:12.439Z,12.70
2019-05-10T21:26:13.649Z,12.70
2019-05-10T21:29:22.120Z,12.70
2019-05-10T21:32:10.369Z,12.80
2019-05-10T21:35:12.203Z,12.70
2019-05-10T21:37:54.079Z,12.70
2019-05-10T21:40:36.403Z,12.70
2019-05-10T21:43:19.055Z,12.70
2019-05-10T21:46:01.108Z,12.50
2019-05-10T21:49:01.995Z,12.40
2019-05-10T21:55:13.107Z,12.40
2019-05-10T21:58:20.368Z,12.40
2019-05-10T22:01:02.785Z,12.40
2019-05-10T22:03:33.852Z,12.40
2019-05-10T22:06:23.344Z,12.30
2019-05-10T22:09:06.428Z,12.20
2019-05-10T22:11:48.291Z,12.30
2019-05-10T22:14:49.407Z,12.20
2019-05-10T22:17:31.547Z,12.20
2019-05-10T22:20:13.771Z,12.10
2019-05-10T22:26:17.016Z,12.10
2019-05-10T22:29:18.186Z,12.10
2019-05-10T22:32:20.474Z,12.10
2019-05-10T22:35:22.028Z,12.10
2019-05-10T22:38:24.337Z,12.10
2019-05-10T22:45:04.575Z,12.10
2019-05-10T22:51:46.767Z,12.10
2019-05-10T22:54:29.264Z,12.10
2019-05-10T22:57:11.932Z,12.10
2019-05-10T22:59:56.197Z,12.10
2019-05-10T23:08:16.220Z,12.10
2019-05-10T23:10:58.413Z,12.10
2019-05-10T23:13:41.092Z,12.10
2019-05-10T23:16:32.525Z,12.10
2019-05-10T23:19:14.377Z,12.00
2019-05-10T23:21:56.435Z,12.00
2019-05-10T23:24:57.804Z,12.00
2019-05-10T23:27:59.451Z,11.90
2019-05-10T23:30:42.591Z,11.90
2019-05-10T23:33:24.736Z,11.90
2019-05-10T23:36:26.084Z,11.90
2019-05-10T23:39:40.725Z,11.80
2019-05-10T23:42:20.964Z,11.80
2019-05-10T23:45:03.348Z,11.80
2019-05-10T23:47:45.612Z,11.80
2019-05-10T23:50:46.363Z,11.80
2019-05-10T23:57:28.739Z,11.80
